Time;durP1;ratioP1;P1;durP2;ratioP2;P2;SDS_P1;SDS_P2;PMS_P1;PMS_P2;Temp;Humidity;BMP_temperature;BMP_pressure;BME280_temperature;BME280_humidity;BME280_pressure;Samples;Min_cycle;Max_cycle;Signal;HPM_P1;HPM_P2
2023/05/24 00:00:20;;;;;;;;;;;;;;;-140.72;100.00;52772.34;5013669;28;19921;-72
2023/05/24 00:02:46;;;;;;;;;;;;;;;-140.72;100.00;52735.81;5011519;28;19972;-72
2023/05/24 00:05:15;;;;;;;;;;;;;;;-140.72;100.00;52731.75;5011779;28;19928;-73
2023/05/24 00:07:40;;;;;;;;;;;;;;;-140.72;100.00;52725.69;5012466;28;19971;-73
2023/05/24 00:10:06;;;;;;;;;;;;;;;-140.72;100.00;52764.25;5013355;28;20015;-73
2023/05/24 00:12:32;;;;;;;;;;;;;;;-140.72;100.00;52760.19;5016861;28;19977;-73
2023/05/24 00:14:57;;;;;;;;;;;;;;;-140.72;100.00;52737.84;5016019;28;20319;-72
2023/05/24 00:17:23;;;;;;;;;;;;;;;-140.72;100.00;52754.09;5013700;28;19929;-73
2023/05/24 00:19:48;;;;;;;;;;;;;;;-140.72;100.00;52705.38;5010179;28;19964;-73
2023/05/24 00:22:13;;;;;;;;;;;;;;;-140.72;100.00;52764.25;5013772;28;20195;-73
2023/05/24 00:24:39;;;;;;;;;;;;;;;-140.72;100.00;52743.94;5013572;28;19980;-73
2023/05/24 00:27:04;;;;;;;;;;;;;;;-140.72;100.00;52764.25;5014378;28;20030;-73
2023/05/24 00:29:30;;;;;;;;;;;;;;;-140.72;100.00;52768.28;5013534;28;19928;-73
2023/05/24 00:31:55;;;;;;;;;;;;;;;-140.72;100.00;52705.38;5010924;28;20302;-73
2023/05/24 00:34:20;;;;;;;;;;;;;;;-140.72;100.00;52764.25;5013923;28;19944;-73
2023/05/24 00:36:45;;;;;;;;;;;;;;;-140.72;100.00;52766.25;5012804;28;19921;-73
2023/05/24 00:39:11;;;;;;;;;;;;;;;-140.72;100.00;52725.69;5009305;28;19929;-73
2023/05/24 00:41:36;;;;;;;;;;;;;;;-140.72;100.00;52768.28;5011956;28;19922;-73
2023/05/24 00:44:01;;;;;;;;;;;;;;;-140.72;100.00;52756.13;5013112;28;19922;-73
2023/05/24 00:46:28;;;;;;;;;;;;;;;-140.72;100.00;52760.19;4992732;28;19969;-73
2023/05/24 00:48:53;;;;;;;;;;;;;;;-140.72;100.00;52764.25;5007015;28;19921;-73
2023/05/24 00:51:19;;;;;;;;;;;;;;;-140.72;100.00;52782.50;5013169;28;19928;-73
2023/05/24 00:53:45;;;;;;;;;;;;;;;-140.72;100.00;52788.59;5008832;28;19972;-73
2023/05/24 00:56:12;;;;;;;;;;;;;;;-140.72;100.00;52802.78;5012902;28;19921;-72
2023/05/24 00:58:37;;;;;;;;;;;;;;;-140.72;100.00;52764.25;5013680;28;19921;-73
2023/05/24 01:01:02;;;;;;;;;;;;;;;-140.72;100.00;52741.91;5011398;28;19921;-73
2023/05/24 01:03:29;;;;;;;;;;;;;;;-140.72;100.00;52804.81;5010712;28;19930;-73
2023/05/24 01:05:57;;;;;;;;;;;;;;;-140.72;100.00;52788.59;5008586;28;19921;-73
2023/05/24 01:08:41;;;;;;;;;;;;;;;-140.72;100.00;52778.44;4995852;28;20389;-73
2023/05/24 01:11:11;;;;;;;;;;;;;;;-140.72;100.00;52743.94;4993611;28;19928;-73
2023/05/24 01:13:36;;;;;;;;;;;;;;;-140.72;100.00;52748.00;5013409;28;20574;-73
2023/05/24 01:16:14;;;;;;;;;;;;;;;-140.72;100.00;52788.59;5013496;28;19921;-73
2023/05/24 01:18:51;;;;;;;;;;;;;;;-140.72;100.00;52788.59;5011491;28;19922;-73
2023/05/24 01:21:37;;;;;;;;;;;;;;;-140.72;100.00;52776.41;5011482;28;19922;-73
2023/05/24 01:24:05;;;;;;;;;;;;;;;-140.72;100.00;52796.72;5010351;28;19921;-73
2023/05/24 01:26:37;;;;;;;;;;;;;;;-140.72;100.00;52756.13;5008708;28;20379;-73
2023/05/24 01:29:03;;;;;;;;;;;;;;;-140.72;100.00;52750.03;5010415;28;19928;-73
2023/05/24 01:31:28;;;;;;;;;;;;;;;-140.72;100.00;52758.16;5011593;28;20345;-73
2023/05/24 01:33:54;;;;;;;;;;;;;;;-140.72;100.00;52774.38;5006806;28;19938;-73
2023/05/24 01:36:19;;;;;;;;;;;;;;;-140.72;100.00;52754.09;5006845;28;19967;-73
2023/05/24 01:38:45;;;;;;;;;;;;;;;-140.72;100.00;52743.94;5007023;28;19929;-73
2023/05/24 01:41:13;;;;;;;;;;;;;;;-140.72;100.00;52790.63;5012548;28;19952;-73
2023/05/24 01:43:55;;;;;;;;;;;;;;;-140.72;100.00;52780.47;5011548;28;20402;-73
2023/05/24 01:46:36;;;;;;;;;;;;;;;-140.72;100.00;52792.66;5011919;28;20361;-73
2023/05/24 01:49:16;;;;;;;;;;;;;;;-140.72;100.00;52762.22;5010249;28;19957;-73
2023/05/24 01:51:50;;;;;;;;;;;;;;;-140.72;100.00;52741.91;5006556;28;20375;-73
2023/05/24 01:54:17;;;;;;;;;;;;;;;-140.72;100.00;52762.22;5010034;28;19932;-73
2023/05/24 01:56:43;;;;;;;;;;;;;;;-140.72;100.00;52784.53;5011134;28;19927;-73
2023/05/24 01:59:08;;;;;;;;;;;;;;;-140.72;100.00;52760.19;5012740;28;20028;-73
2023/05/24 02:01:34;;;;;;;;;;;;;;;-140.72;100.00;52810.91;5010875;28;19921;-73
2023/05/24 02:04:00;;;;;;;;;;;;;;;-140.72;100.00;52762.22;5011372;28;19922;-73
2023/05/24 02:06:25;;;;;;;;;;;;;;;-140.72;100.00;52788.59;5009099;28;19930;-73
2023/05/24 02:08:52;;;;;;;;;;;;;;;-140.72;100.00;52780.47;5015625;28;19973;-73
2023/05/24 02:11:17;;;;;;;;;;;;;;;-140.72;100.00;52748.00;5015674;28;19926;-73
2023/05/24 02:13:42;;;;;;;;;;;;;;;-140.72;100.00;52784.53;5014014;28;20442;-73
2023/05/24 02:16:09;;;;;;;;;;;;;;;-140.72;100.00;52800.75;5016559;28;20338;-73
2023/05/24 02:18:34;;;;;;;;;;;;;;;-140.72;100.00;52800.75;5016754;28;20060;-73
2023/05/24 02:21:01;;;;;;;;;;;;;;;-140.72;100.00;52770.31;5013904;28;20371;-73
2023/05/24 02:23:26;;;;;;;;;;;;;;;-140.72;100.00;52819.03;5014948;28;19922;-73
2023/05/24 02:25:51;;;;;;;;;;;;;;;-140.72;100.00;52776.41;5016505;28;19936;-73
2023/05/24 02:28:16;;;;;;;;;;;;;;;-140.72;100.00;52756.13;5016020;28;19922;-73
2023/05/24 02:30:43;;;;;;;;;;;;;;;-140.72;100.00;52786.56;5012745;28;19921;-73
2023/05/24 02:33:08;;;;;;;;;;;;;;;-140.72;100.00;52760.19;5008307;28;19957;-73
2023/05/24 02:35:34;;;;;;;;;;;;;;;-140.72;100.00;52796.72;5007522;28;20390;-73
2023/05/24 02:38:01;;;;;;;;;;;;;;;-140.72;100.00;52772.34;4997021;28;19971;-73
2023/05/24 02:40:26;;;;;;;;;;;;;;;-140.72;100.00;52784.53;4993023;28;19922;-73
2023/05/24 02:42:54;;;;;;;;;;;;;;;-140.72;100.00;52764.25;4997448;28;19944;-73
2023/05/24 02:45:19;;;;;;;;;;;;;;;-140.72;100.00;52758.16;4993931;28;19928;-73
2023/05/24 02:47:45;;;;;;;;;;;;;;;-140.72;100.00;52786.56;4995419;28;19925;-73
2023/05/24 02:50:10;;;;;;;;;;;;;;;-140.72;100.00;52762.22;4995060;28;19962;-73
2023/05/24 02:52:35;;;;;;;;;;;;;;;-140.72;100.00;52762.22;4995052;28;19953;-73
2023/05/24 02:55:01;;;;;;;;;;;;;;;-140.72;100.00;52802.78;4986459;28;20639;-73
2023/05/24 02:57:27;;;;;;;;;;;;;;;-140.72;100.00;52792.66;4996904;28;20367;-73
2023/05/24 02:59:53;;;;;;;;;;;;;;;-140.72;100.00;52760.19;4986359;28;19928;-73
2023/05/24 03:02:18;;;;;;;;;;;;;;;-140.72;100.00;52780.47;5008326;28;20004;-73
2023/05/24 03:04:43;;;;;;;;;;;;;;;-140.72;100.00;52825.13;4993251;28;19921;-73
2023/05/24 03:07:09;;;;;;;;;;;;;;;-140.72;100.00;52784.53;4990657;28;19926;-73
2023/05/24 03:09:34;;;;;;;;;;;;;;;-140.72;100.00;52762.22;4996508;28;20012;-73
2023/05/24 03:12:00;;;;;;;;;;;;;;;-140.72;100.00;52762.22;4996148;28;19968;-73
2023/05/24 03:14:25;;;;;;;;;;;;;;;-140.72;100.00;52772.34;4996455;28;19976;-73
2023/05/24 03:16:51;;;;;;;;;;;;;;;-140.72;100.00;52768.28;4992100;28;20348;-73
2023/05/24 03:19:16;;;;;;;;;;;;;;;-140.72;100.00;52829.19;4994903;28;19922;-73
2023/05/24 03:21:42;;;;;;;;;;;;;;;-140.72;100.00;52784.53;4996826;28;19945;-73
2023/05/24 03:24:08;;;;;;;;;;;;;;;-140.72;100.00;52823.09;4988719;28;19929;-73
2023/05/24 03:26:33;;;;;;;;;;;;;;;-140.72;100.00;52788.59;4997038;28;19929;-73
2023/05/24 03:28:58;;;;;;;;;;;;;;;-140.72;100.00;52782.50;5010552;28;19926;-73
2023/05/24 03:31:25;;;;;;;;;;;;;;;-140.72;100.00;52772.34;4994839;28;19925;-73
2023/05/24 03:33:50;;;;;;;;;;;;;;;-140.72;100.00;52849.47;5009705;28;19922;-73
2023/05/24 03:36:16;;;;;;;;;;;;;;;-140.72;100.00;52798.72;5012895;28;19928;-73
2023/05/24 03:38:41;;;;;;;;;;;;;;;-140.72;100.00;52829.19;5015413;28;20398;-73
2023/05/24 03:41:06;;;;;;;;;;;;;;;-140.72;100.00;52780.47;5014552;28;19944;-70
2023/05/24 03:43:31;;;;;;;;;;;;;;;-140.72;100.00;52778.44;5013925;28;20312;-73
2023/05/24 03:45:57;;;;;;;;;;;;;;;-140.72;100.00;52821.06;5015593;28;19929;-73
2023/05/24 03:48:22;;;;;;;;;;;;;;;-140.72;100.00;52784.53;5014631;28;20077;-73
2023/05/24 03:50:47;;;;;;;;;;;;;;;-140.72;100.00;52804.81;5015574;28;19921;-73
2023/05/24 03:53:12;;;;;;;;;;;;;;;-140.72;100.00;52808.88;5012795;28;19929;-73
2023/05/24 03:55:38;;;;;;;;;;;;;;;-140.72;100.00;52808.88;5012294;28;19925;-73
2023/05/24 03:58:03;;;;;;;;;;;;;;;-140.72;100.00;52774.38;5009224;28;20279;-73
2023/05/24 04:00:28;;;;;;;;;;;;;;;-140.72;100.00;52808.88;5008496;28;20386;-73
2023/05/24 04:02:55;;;;;;;;;;;;;;;-140.72;100.00;52792.66;5016158;28;20219;-72
2023/05/24 04:05:25;;;;;;;;;;;;;;;-140.72;100.00;52808.88;5012670;28;19929;-73
2023/05/24 04:07:50;;;;;;;;;;;;;;;-140.72;100.00;52786.56;5012506;28;20339;-73
2023/05/24 04:10:16;;;;;;;;;;;;;;;-140.72;100.00;52780.47;5009904;28;19921;-73
2023/05/24 04:12:41;;;;;;;;;;;;;;;-140.72;100.00;52814.97;5014405;28;19921;-73
2023/05/24 04:15:06;;;;;;;;;;;;;;;-140.72;100.00;52800.75;5015199;28;19921;-73
2023/05/24 04:17:33;;;;;;;;;;;;;;;-140.72;100.00;52780.47;5014215;28;19922;-73
2023/05/24 04:19:59;;;;;;;;;;;;;;;-140.72;100.00;52798.72;5013908;28;19933;-73
2023/05/24 04:22:24;;;;;;;;;;;;;;;-140.72;100.00;52780.47;5008826;28;19956;-73
2023/05/24 04:24:49;;;;;;;;;;;;;;;-140.72;100.00;52823.09;5013346;28;19944;-73
2023/05/24 04:27:16;;;;;;;;;;;;;;;-140.72;100.00;52752.06;5010960;28;19925;-72
2023/05/24 04:29:44;;;;;;;;;;;;;;;-140.72;100.00;52758.16;5014500;28;19921;-72
2023/05/24 04:32:09;;;;;;;;;;;;;;;-140.72;100.00;52764.25;5007862;28;19929;-72
2023/05/24 04:34:34;;;;;;;;;;;;;;;-140.72;100.00;52762.22;5014196;28;19925;-73
2023/05/24 04:37:00;;;;;;;;;;;;;;;-140.72;100.00;52703.34;5010650;28;19925;-73
2023/05/24 04:39:26;;;;;;;;;;;;;;;-140.72;100.00;52731.75;5011042;28;19922;-72
2023/05/24 04:41:52;;;;;;;;;;;;;;;-140.72;100.00;52748.00;5009004;28;20465;-71
2023/05/24 04:44:17;;;;;;;;;;;;;;;-140.72;100.00;52743.94;5006799;28;19918;-71
2023/05/24 04:46:42;;;;;;;;;;;;;;;-140.72;100.00;52760.19;5013376;28;20298;-71
2023/05/24 04:49:08;;;;;;;;;;;;;;;-140.72;100.00;52748.00;5011976;28;19938;-71
2023/05/24 04:51:49;;;;;;;;;;;;;;;-140.72;100.00;52713.50;5008786;28;19980;-71
2023/05/24 04:54:16;;;;;;;;;;;;;;;-140.72;100.00;52745.97;5006751;28;19971;-72
2023/05/24 04:56:42;;;;;;;;;;;;;;;-140.72;100.00;52711.47;5013341;28;20000;-71
2023/05/24 04:59:07;;;;;;;;;;;;;;;-140.72;100.00;52699.31;5011825;28;19953;-72
2023/05/24 05:01:33;;;;;;;;;;;;;;;-140.72;100.00;52752.06;5008321;28;19918;-73
2023/05/24 05:03:59;;;;;;;;;;;;;;;-140.72;100.00;52748.00;5012508;28;20399;-73
2023/05/24 05:06:24;;;;;;;;;;;;;;;-140.72;100.00;52750.03;5010662;28;19944;-73
2023/05/24 05:08:50;;;;;;;;;;;;;;;-140.72;100.00;52725.69;4996695;28;19921;-73
2023/05/24 05:11:17;;;;;;;;;;;;;;;-140.72;100.00;52715.53;5008568;28;19917;-73
2023/05/24 05:13:42;;;;;;;;;;;;;;;-140.72;100.00;52741.91;5004959;28;20288;-73
2023/05/24 05:16:08;;;;;;;;;;;;;;;-140.72;100.00;52719.59;5011719;28;19954;-72
2023/05/24 05:18:33;;;;;;;;;;;;;;;-140.72;100.00;52754.09;5008778;28;19921;-73
2023/05/24 05:20:58;;;;;;;;;;;;;;;-140.72;100.00;52762.22;5007134;28;19928;-72
2023/05/24 05:23:23;;;;;;;;;;;;;;;-140.72;100.00;52729.75;5011243;28;19933;-72
2023/05/24 05:25:57;;;;;;;;;;;;;;;-140.72;100.00;52713.50;5011893;28;19921;-72
2023/05/24 05:28:36;;;;;;;;;;;;;;;-140.72;100.00;52715.53;5014500;28;19921;-74
2023/05/24 05:31:02;;;;;;;;;;;;;;;-140.72;100.00;52679.00;5008027;28;19945;-74
2023/05/24 05:33:54;;;;;;;;;;;;;;;-140.72;100.00;52721.63;5013772;28;20383;-80
2023/05/24 05:36:19;;;;;;;;;;;;;;;-140.72;100.00;52672.91;5010679;28;19929;-74
2023/05/24 05:38:44;;;;;;;;;;;;;;;-140.72;100.00;52697.28;5006796;28;19925;-74
2023/05/24 05:41:09;;;;;;;;;;;;;;;-140.72;100.00;52707.41;5009021;28;19930;-74
2023/05/24 05:43:35;;;;;;;;;;;;;;;-140.72;100.00;52689.16;5004210;28;19918;-74
2023/05/24 05:46:00;;;;;;;;;;;;;;;-140.72;100.00;52646.53;4999994;28;19917;-74
2023/05/24 05:48:26;;;;;;;;;;;;;;;-140.72;100.00;52630.31;5011294;28;20379;-74
2023/05/24 05:50:57;;;;;;;;;;;;;;;-140.72;100.00;52711.47;5010082;28;19921;-75
2023/05/24 05:53:23;;;;;;;;;;;;;;;-140.72;100.00;52624.22;5012258;28;19929;-74
2023/05/24 05:55:49;;;;;;;;;;;;;;;-140.72;100.00;52642.47;5015523;28;19968;-74
2023/05/24 05:58:15;;;;;;;;;;;;;;;-140.72;100.00;52642.47;5008585;28;19925;-74
2023/05/24 06:00:40;;;;;;;;;;;;;;;-140.72;100.00;52656.69;5010045;28;19967;-74
2023/05/24 06:03:05;;;;;;;;;;;;;;;-140.72;100.00;52699.31;5013760;28;19944;-74
2023/05/24 06:05:30;;;;;;;;;;;;;;;-140.72;100.00;52638.41;5013129;28;19933;-75
2023/05/24 06:07:56;;;;;;;;;;;;;;;-140.72;100.00;52614.06;5014380;28;19922;-74
2023/05/24 06:10:21;;;;;;;;;;;;;;;-140.72;100.00;52646.53;5006816;28;19921;-75
2023/05/24 06:12:46;;;;;;;;;;;;;;;-140.72;100.00;52620.16;5008372;28;20299;-73
2023/05/24 06:15:12;;;;;;;;;;;;;;;-140.72;100.00;52610.00;5013378;28;19924;-71
2023/05/24 06:17:38;;;;;;;;;;;;;;;-140.72;100.00;52640.44;5011763;28;19928;-72
2023/05/24 06:20:08;;;;;;;;;;;;;;;-140.72;100.00;52652.63;5009198;28;19922;-71
2023/05/24 06:22:35;;;;;;;;;;;;;;;-140.72;100.00;52581.59;5007524;28;19968;-71
2023/05/24 06:25:00;;;;;;;;;;;;;;;-140.72;100.00;52642.47;5011857;28;19921;-71
2023/05/24 06:27:25;;;;;;;;;;;;;;;-140.72;100.00;52616.09;5008322;28;19922;-72
2023/05/24 06:29:51;;;;;;;;;;;;;;;-140.72;100.00;52630.31;5013019;28;19926;-74
2023/05/24 06:32:16;;;;;;;;;;;;;;;-140.72;100.00;52607.97;5013147;28;19963;-73
2023/05/24 06:34:42;;;;;;;;;;;;;;;-140.72;100.00;52610.00;5012880;28;20271;-72
2023/05/24 06:37:09;;;;;;;;;;;;;;;-140.72;100.00;52605.94;5004275;28;20284;-73
2023/05/24 06:39:34;;;;;;;;;;;;;;;-140.72;100.00;52638.41;4992353;28;19927;-74
2023/05/24 06:42:00;;;;;;;;;;;;;;;-140.72;100.00;52618.13;5009639;28;19925;-73
2023/05/24 06:44:32;;;;;;;;;;;;;;;-140.72;100.00;52591.75;5004831;28;19953;-75
2023/05/24 06:46:57;;;;;;;;;;;;;;;-140.72;100.00;52571.47;5012961;28;19953;-77
2023/05/24 06:49:23;;;;;;;;;;;;;;;-140.72;100.00;52612.03;5009044;28;19929;-76
2023/05/24 06:51:48;;;;;;;;;;;;;;;-140.72;100.00;52620.16;5012325;28;19956;-73
2023/05/24 06:54:13;;;;;;;;;;;;;;;-140.72;100.00;52618.13;5014590;28;20410;-73
2023/05/24 06:56:38;;;;;;;;;;;;;;;-140.72;100.00;52612.03;5013235;28;19928;-74
2023/05/24 06:59:03;;;;;;;;;;;;;;;-140.72;100.00;52565.38;5013396;28;19972;-74
2023/05/24 07:01:29;;;;;;;;;;;;;;;-140.72;100.00;52567.41;5014127;28;19922;-73
2023/05/24 07:03:54;;;;;;;;;;;;;;;-140.72;100.00;52587.69;5014630;28;19936;-74
2023/05/24 07:06:20;;;;;;;;;;;;;;;-140.72;93.78;52589.72;5016839;28;20295;-74
2023/05/24 07:08:45;;;;;;;;;;;;;;;-140.72;52.64;52610.00;5015713;28;19922;-74
2023/05/24 07:11:10;;;;;;;;;;;;;;;-140.72;61.02;52547.09;5009323;28;20383;-73
2023/05/24 07:13:47;;;;;;;;;;;;;;;-140.72;43.26;52528.84;5006491;28;20325;-74
2023/05/24 07:16:12;;;;;;;;;;;;;;;-140.72;25.81;52526.81;5010660;28;20016;-74
2023/05/24 07:18:40;;;;;;;;;;;;;;;-140.72;23.25;52559.28;5010128;28;20439;-74
2023/05/24 07:21:05;;;;;;;;;;;;;;;-140.72;3.70;52597.84;5012333;28;19925;-74
2023/05/24 07:23:31;;;;;;;;;;;;;;;-140.72;10.17;52575.50;5003154;28;20298;-74
2023/05/24 07:26:32;;;;;;;;;;;;;;;-140.72;0.00;52565.38;5008317;28;19925;-74
2023/05/24 07:28:57;;;;;;;;;;;;;;;-140.72;0.00;52536.97;5005822;28;19918;-74
2023/05/24 07:32:01;;;;;;;;;;;;;;;-140.72;0.00;52528.84;5009325;28;19941;-74
2023/05/24 07:34:28;;;;;;;;;;;;;;;-140.72;0.00;52522.75;5002391;28;19987;-74
2023/05/24 07:36:54;;;;;;;;;;;;;;;-140.72;0.00;52524.78;5009725;28;19921;-74
2023/05/24 07:39:19;;;;;;;;;;;;;;;-140.72;0.00;52520.72;5014236;28;19939;-74
2023/05/24 07:41:44;;;;;;;;;;;;;;;-140.72;0.00;52516.66;5000861;28;19930;-74
2023/05/24 07:44:12;;;;;;;;;;;;;;;-140.72;0.00;52530.88;5008150;28;20010;-71
2023/05/24 07:46:38;;;;;;;;;;;;;;;-140.72;0.00;52528.84;4994788;28;19925;-73
2023/05/24 07:49:17;;;;;;;;;;;;;;;-140.72;0.00;52520.72;5008254;28;20828;-73
2023/05/24 07:51:45;;;;;;;;;;;;;;;-140.72;0.00;52480.16;5017223;28;19918;-73
2023/05/24 07:54:10;;;;;;;;;;;;;;;-140.72;0.00;52516.66;5011003;28;19922;-73
2023/05/24 07:56:36;;;;;;;;;;;;;;;-140.72;0.00;52512.59;5010976;28;19930;-73
2023/05/24 07:59:04;;;;;;;;;;;;;;;-140.72;0.00;52470.00;5010455;28;20303;-73
2023/05/24 08:01:31;;;;;;;;;;;;;;;-140.72;0.00;52459.84;5015178;28;19940;-74
2023/05/24 08:03:56;;;;;;;;;;;;;;;-140.72;0.00;52472.03;5010474;28;19928;-73
2023/05/24 08:06:22;;;;;;;;;;;;;;;-140.72;0.00;52488.25;5008532;28;19918;-73
2023/05/24 08:09:03;;;;;;;;;;;;;;;-140.72;0.00;52504.50;5011593;28;19929;-73
2023/05/24 08:11:28;;;;;;;;;;;;;;;-140.72;0.00;52461.88;5008415;28;19975;-73
2023/05/24 08:13:53;;;;;;;;;;;;;;;-140.72;0.00;52455.78;5006493;28;20376;-73
2023/05/24 08:16:18;;;;;;;;;;;;;;;-140.72;0.00;52482.16;5012380;28;20020;-73
2023/05/24 08:18:44;;;;;;;;;;;;;;;-140.72;0.00;52498.41;5009395;28;19965;-73
2023/05/24 08:21:09;;;;;;;;;;;;;;;-140.72;0.00;52494.34;5013124;28;19917;-73
2023/05/24 08:23:35;;;;;;;;;;;;;;;-140.72;0.00;52443.63;5007976;28;19921;-73
2023/05/24 08:29:07;;;;;;;;;;;;;;;-140.72;0.00;52472.03;5012329;28;19971;-75
2023/05/24 08:31:35;;;;;;;;;;;;;;;-140.72;0.00;52435.50;4992758;28;19931;-75
2023/05/24 08:34:00;;;;;;;;;;;;;;;-140.72;0.00;52425.34;5008810;28;19922;-75
2023/05/24 08:36:25;;;;;;;;;;;;;;;-140.72;0.00;52427.38;5014736;28;19924;-75
2023/05/24 08:38:52;;;;;;;;;;;;;;;-140.72;0.00;52388.84;5009759;28;20382;-74
2023/05/24 08:41:18;;;;;;;;;;;;;;;-140.72;0.00;52388.84;5008055;28;19964;-74
2023/05/24 08:43:43;;;;;;;;;;;;;;;-140.72;0.00;52382.75;5003371;28;19921;-74
2023/05/24 08:46:09;;;;;;;;;;;;;;;-140.72;0.00;52386.81;5001882;28;19918;-74
2023/05/24 08:48:41;;;;;;;;;;;;;;;-140.72;0.00;52392.88;5009960;28;20028;-75
2023/05/24 08:51:07;;;;;;;;;;;;;;;-140.72;0.00;52411.16;5009393;28;20383;-74
2023/05/24 08:53:34;;;;;;;;;;;;;;;-140.72;0.00;52360.44;5013503;28;19971;-74
2023/05/24 08:56:00;;;;;;;;;;;;;;;-140.72;0.00;52374.63;5004942;28;19928;-74
2023/05/24 08:58:26;;;;;;;;;;;;;;;-140.72;0.00;52386.81;5007208;28;20283;-74
2023/05/24 09:00:51;;;;;;;;;;;;;;;-140.72;0.00;52372.59;5001891;28;20008;-74
2023/05/24 09:03:17;;;;;;;;;;;;;;;-140.72;0.00;52307.66;5008010;28;19917;-74
2023/05/24 09:05:42;;;;;;;;;;;;;;;-140.72;0.00;52307.66;5008159;28;19922;-74
2023/05/24 09:08:08;;;;;;;;;;;;;;;-140.72;0.00;52279.25;5007515;28;19928;-73
2023/05/24 09:10:34;;;;;;;;;;;;;;;-140.72;0.00;52299.56;5006053;28;19918;-73
2023/05/24 09:13:01;;;;;;;;;;;;;;;-140.72;0.00;52376.66;5001465;28;19924;-73
2023/05/24 09:15:26;;;;;;;;;;;;;;;-140.72;0.00;52431.44;5010710;28;20355;-73
2023/05/24 09:17:52;;;;;;;;;;;;;;;-140.72;0.00;52435.50;5008786;28;19972;-74
2023/05/24 09:20:18;;;;;;;;;;;;;;;-140.72;0.00;52435.50;5004536;28;19917;-73
2023/05/24 09:22:44;;;;;;;;;;;;;;;-140.72;0.00;52445.66;5004373;28;19940;-74
2023/05/24 09:25:11;;;;;;;;;;;;;;;-140.72;0.00;52392.88;5008596;28;19921;-76
2023/05/24 09:27:37;;;;;;;;;;;;;;;-140.72;0.00;52394.91;5009983;28;19917;-75
2023/05/24 09:30:07;;;;;;;;;;;;;;;-140.72;0.00;52281.28;5011918;28;19921;-74
2023/05/24 09:32:32;;;;;;;;;;;;;;;-140.72;0.00;52267.09;5002408;28;19922;-74
2023/05/24 09:34:57;;;;;;;;;;;;;;;-140.72;0.00;52338.09;5010724;28;19921;-74
2023/05/24 09:37:26;;;;;;;;;;;;;;;-140.72;0.00;52305.63;5010231;28;19921;-74
2023/05/24 09:39:51;;;;;;;;;;;;;;;-140.72;0.00;52364.47;5009245;28;19933;-73
2023/05/24 09:42:19;;;;;;;;;;;;;;;-140.72;0.00;52392.88;5013800;28;20429;-73
2023/05/24 09:44:46;;;;;;;;;;;;;;;-140.72;0.00;52358.41;4996813;28;19926;-74
2023/05/24 09:47:11;;;;;;;;;;;;;;;-140.72;0.00;52299.56;5004928;28;20005;-74
2023/05/24 09:49:36;;;;;;;;;;;;;;;-140.72;0.00;52311.72;5007602;28;19960;-74
2023/05/24 09:52:02;;;;;;;;;;;;;;;-140.72;0.00;52256.94;5007244;28;19969;-73
2023/05/24 09:54:27;;;;;;;;;;;;;;;-140.72;0.00;52277.22;5008086;28;20404;-73
2023/05/24 09:56:52;;;;;;;;;;;;;;;-140.72;0.00;52208.25;4992225;28;19929;-72
2023/05/24 09:59:18;;;;;;;;;;;;;;;-140.72;0.00;52161.56;5005255;28;19929;-73
2023/05/24 10:01:43;;;;;;;;;;;;;;;-140.72;0.00;52155.50;5008451;28;19921;-73
2023/05/24 10:04:09;;;;;;;;;;;;;;;-140.72;0.00;52129.13;5006013;28;20328;-73
2023/05/24 10:06:42;;;;;;;;;;;;;;;-140.72;0.00;52139.25;5009979;28;19926;-77
2023/05/24 10:09:08;;;;;;;;;;;;;;;-140.72;0.00;52127.09;5010998;28;19925;-73
2023/05/24 10:11:36;;;;;;;;;;;;;;;-140.72;0.00;52232.59;5010834;28;19928;-72
2023/05/24 10:14:08;;;;;;;;;;;;;;;-140.72;0.00;52108.81;5005170;28;19972;-71
2023/05/24 10:16:33;;;;;;;;;;;;;;;-140.72;0.00;52090.56;5007944;28;19921;-72
2023/05/24 10:18:58;;;;;;;;;;;;;;;-140.72;0.00;52062.16;5003639;28;20265;-72
2023/05/24 10:21:25;;;;;;;;;;;;;;;-140.72;0.00;52074.34;5012065;28;19929;-71
2023/05/24 10:23:56;;;;;;;;;;;;;;;-140.72;0.00;52088.53;5006978;28;19999;-72
2023/05/24 10:26:24;;;;;;;;;;;;;;;-140.72;0.00;52070.28;4994679;28;19972;-72
2023/05/24 10:28:52;;;;;;;;;;;;;;;-140.72;0.00;52096.66;4995923;28;20375;-71
2023/05/24 10:31:21;;;;;;;;;;;;;;;-140.72;0.00;52068.25;5006744;28;19961;-71
2023/05/24 10:33:47;;;;;;;;;;;;;;;-140.72;0.00;52023.59;5011565;28;19921;-72
2023/05/24 10:36:14;;;;;;;;;;;;;;;-140.72;0.00;52072.31;5010383;28;19936;-72
2023/05/24 10:38:40;;;;;;;;;;;;;;;-140.72;0.00;52074.34;5013557;28;20359;-72
2023/05/24 10:41:09;;;;;;;;;;;;;;;-140.72;0.00;52041.88;5012272;28;19928;-71
2023/05/24 10:43:35;;;;;;;;;;;;;;;-140.72;0.00;52017.53;4999384;28;19928;-72
2023/05/24 10:46:01;;;;;;;;;;;;;;;-140.72;0.00;52112.88;5015909;28;19922;-72
2023/05/24 10:48:27;;;;;;;;;;;;;;;-140.72;0.00;52194.03;5018123;28;19921;-72
2023/05/24 10:50:52;;;;;;;;;;;;;;;-140.72;0.00;52281.28;5010295;28;20028;-72
2023/05/24 10:53:18;;;;;;;;;;;;;;;-140.72;0.00;52192.00;5015382;28;19918;-72
2023/05/24 10:55:54;;;;;;;;;;;;;;;-140.72;0.00;52114.91;5013586;28;19936;-72
2023/05/24 10:58:19;;;;;;;;;;;;;;;-140.72;0.00;52054.03;5012063;28;19969;-72
2023/05/24 11:00:45;;;;;;;;;;;;;;;-140.72;0.00;52039.84;5008785;28;19929;-72
2023/05/24 11:03:11;;;;;;;;;;;;;;;-140.72;0.00;51985.06;5011533;28;20454;-72
2023/05/24 11:05:46;;;;;;;;;;;;;;;-140.72;0.00;51974.91;5013675;28;19922;-72
2023/05/24 11:08:12;;;;;;;;;;;;;;;-140.72;0.00;52153.47;5006711;28;20290;-75
2023/05/24 11:10:37;;;;;;;;;;;;;;;-140.72;0.00;52224.47;5012110;28;19921;-74
2023/05/24 11:13:02;;;;;;;;;;;;;;;-140.72;0.00;52200.13;5015879;28;19976;-74
2023/05/24 11:15:28;;;;;;;;;;;;;;;-140.72;0.00;52155.50;5006785;28;20303;-75
2023/05/24 11:18:12;;;;;;;;;;;;;;;-140.72;0.00;52198.09;5008681;28;19932;-76
2023/05/24 11:20:38;;;;;;;;;;;;;;;-140.72;0.00;52267.09;5008260;28;19976;-74
2023/05/24 11:23:04;;;;;;;;;;;;;;;-140.72;0.00;52295.50;5010633;28;20327;-74
2023/05/24 11:25:29;;;;;;;;;;;;;;;-140.72;0.00;52297.53;5013359;28;20327;-74
2023/05/24 11:27:57;;;;;;;;;;;;;;;-140.72;0.00;52340.13;4992513;28;19925;-74
2023/05/24 11:30:23;;;;;;;;;;;;;;;-140.72;0.00;52398.97;5016568;28;19960;-74
2023/05/24 11:32:48;;;;;;;;;;;;;;;-140.72;0.00;52346.22;5011257;28;19953;-74
2023/05/24 11:35:14;;;;;;;;;;;;;;;-140.72;0.00;52346.22;5012090;28;19952;-74
2023/05/24 11:37:40;;;;;;;;;;;;;;;-140.72;0.00;52388.84;5012738;28;19918;-74
2023/05/24 11:40:08;;;;;;;;;;;;;;;-140.72;0.00;52372.59;5011794;28;19928;-73
2023/05/24 11:42:36;;;;;;;;;;;;;;;-140.72;0.00;52392.88;5012376;28;19921;-74
2023/05/24 11:45:01;;;;;;;;;;;;;;;-140.72;0.00;52419.28;5006860;28;19921;-74
2023/05/24 11:47:26;;;;;;;;;;;;;;;-140.72;0.00;52417.25;5011756;28;19917;-73
2023/05/24 11:49:52;;;;;;;;;;;;;;;-140.72;0.00;52382.75;5007614;28;19925;-73
2023/05/24 11:52:17;;;;;;;;;;;;;;;-140.72;0.00;52394.91;5003767;28;19941;-74
2023/05/24 11:54:42;;;;;;;;;;;;;;;-140.72;0.00;52425.34;5009797;28;19964;-74
2023/05/24 11:57:11;;;;;;;;;;;;;;;-140.72;0.00;52447.69;5002439;28;19969;-73
2023/05/24 11:59:37;;;;;;;;;;;;;;;-140.72;0.00;52427.38;5005052;28;20023;-74
2023/05/24 12:02:04;;;;;;;;;;;;;;;-140.72;0.00;52419.28;5014426;28;19926;-74
2023/05/24 12:04:29;;;;;;;;;;;;;;;-140.72;0.00;52415.22;5006776;28;19917;-74
2023/05/24 12:06:55;;;;;;;;;;;;;;;-140.72;0.00;52405.06;5008315;28;20031;-74
2023/05/24 12:09:21;;;;;;;;;;;;;;;-140.72;0.00;52415.22;5013534;28;19921;-74
2023/05/24 12:11:48;;;;;;;;;;;;;;;-140.72;0.00;52439.56;5004023;28;20000;-74
2023/05/24 12:14:15;;;;;;;;;;;;;;;-140.72;0.00;52451.72;5005273;28;19922;-74
2023/05/24 12:16:44;;;;;;;;;;;;;;;-140.72;0.00;52401.00;5005197;28;20399;-74
2023/05/24 12:19:19;;;;;;;;;;;;;;;-140.72;0.00;52398.97;5010462;28;19991;-74
2023/05/24 12:21:45;;;;;;;;;;;;;;;-140.72;0.00;52429.41;5004252;28;19918;-77
2023/05/24 12:24:12;;;;;;;;;;;;;;;-140.72;0.00;52374.63;5005008;28;19944;-76
2023/05/24 12:26:41;;;;;;;;;;;;;;;-140.72;0.00;52350.28;5002876;28;19925;-77